createdAt,value
2023-04-18T00:03:54.987Z,18.67
2023-04-18T00:07:56.981Z,17.87
2023-04-18T00:11:58.920Z,18.00
2023-04-18T00:16:01.697Z,21.83
2023-04-18T00:20:04.647Z,32.23
2023-04-18T00:24:06.991Z,25.90
2023-04-18T00:28:09.942Z,40.23
2023-04-18T00:32:11.974Z,29.53
2023-04-18T00:36:13.850Z,18.40
2023-04-18T00:40:18.535Z,17.83
2023-04-18T00:44:20.509Z,17.50
2023-04-18T00:48:23.333Z,18.13
2023-04-18T00:52:27.298Z,16.73
2023-04-18T00:56:29.838Z,17.77
2023-04-18T01:00:33.121Z,17.37
2023-04-18T01:04:35.250Z,17.17
2023-04-18T01:08:37.556Z,15.53
2023-04-18T01:12:40.715Z,16.80
2023-04-18T01:16:44.072Z,15.83
2023-04-18T01:20:54.766Z,15.37
2023-04-18T01:24:57.183Z,16.87
2023-04-18T01:28:59.040Z,14.50
2023-04-18T01:33:02.749Z,15.23
2023-04-18T01:37:04.597Z,15.97
2023-04-18T01:41:08.234Z,17.97
2023-04-18T01:45:12.085Z,16.43
2023-04-18T01:49:16.461Z,17.03
2023-04-18T01:53:18.559Z,19.80
2023-04-18T01:57:20.440Z,14.83
2023-04-18T02:01:24.060Z,18.40
2023-04-18T02:05:28.840Z,16.93
2023-04-18T02:09:30.881Z,15.43
2023-04-18T02:13:33.286Z,15.83
2023-04-18T02:17:36.305Z,17.97
2023-04-18T02:21:38.481Z,17.40
2023-04-18T02:25:40.641Z,18.37
2023-04-18T02:29:42.593Z,17.97
2023-04-18T02:33:47.140Z,18.80
2023-04-18T02:37:49.398Z,20.70
2023-04-18T02:41:52.340Z,18.37
2023-04-18T02:45:54.522Z,16.27
2023-04-18T02:49:56.569Z,24.90
2023-04-18T02:54:04.518Z,17.37
2023-04-18T02:58:18.117Z,20.93
2023-04-18T03:02:26.245Z,17.40
2023-04-18T03:06:33.352Z,17.13
2023-04-18T03:10:37.360Z,17.70
2023-04-18T03:14:39.390Z,15.93
2023-04-18T03:18:41.503Z,20.30
2023-04-18T03:22:43.773Z,17.00
2023-04-18T03:26:47.209Z,18.23
2023-04-18T03:30:50.623Z,15.07
2023-04-18T03:34:53.084Z,19.70
2023-04-18T03:38:55.810Z,20.83
2023-04-18T03:42:59.909Z,19.57
2023-04-18T03:47:02.045Z,21.17
2023-04-18T03:51:06.405Z,20.53
2023-04-18T03:55:09.893Z,17.83
2023-04-18T03:59:12.682Z,21.17
2023-04-18T04:03:17.490Z,19.17
2023-04-18T04:07:21.344Z,21.20
2023-04-18T04:11:23.604Z,18.60
2023-04-18T04:15:26.064Z,18.47
2023-04-18T04:19:35.431Z,21.80
2023-04-18T04:23:46.237Z,18.90
2023-04-18T04:28:01.394Z,21.73
2023-04-18T04:32:05.658Z,22.67
2023-04-18T04:36:16.666Z,23.63
2023-04-18T04:40:22.923Z,20.77
2023-04-18T04:44:41.580Z,21.07
2023-04-18T04:48:44.267Z,22.13
2023-04-18T04:52:46.247Z,22.47
2023-04-18T04:56:48.703Z,23.27
2023-04-18T05:00:52.643Z,23.77
2023-04-18T05:04:55.394Z,21.77
2023-04-18T05:08:59.574Z,24.27
2023-04-18T05:13:01.411Z,24.50
2023-04-18T05:17:04.161Z,23.27
2023-04-18T05:21:06.522Z,22.67
2023-04-18T05:25:08.739Z,23.97
2023-04-18T05:29:10.796Z,26.93
2023-04-18T05:33:12.880Z,28.73
2023-04-18T05:37:15.073Z,24.00
2023-04-18T05:41:17.003Z,24.83
2023-04-18T05:45:19.035Z,25.30
2023-04-18T05:49:21.290Z,27.73
2023-04-18T05:53:23.380Z,26.53
2023-04-18T05:57:25.466Z,23.50
2023-04-18T06:01:27.522Z,24.57
2023-04-18T06:05:30.081Z,22.77
2023-04-18T06:09:32.426Z,25.47
2023-04-18T06:13:34.404Z,24.90
2023-04-18T06:17:36.308Z,23.27
2023-04-18T06:21:39.412Z,24.57
2023-04-18T06:25:42.327Z,24.93
2023-04-18T06:29:44.586Z,26.27
2023-04-18T06:33:46.481Z,25.17
2023-04-18T06:37:48.643Z,25.13
2023-04-18T06:41:50.673Z,25.80
2023-04-18T06:46:04.893Z,24.17
2023-04-18T06:50:07.909Z,24.20
2023-04-18T06:54:09.934Z,24.77
2023-04-18T06:58:13.655Z,25.23
2023-04-18T07:02:15.743Z,26.47
2023-04-18T07:06:18.695Z,23.97
2023-04-18T07:10:20.774Z,24.53
2023-04-18T07:14:24.617Z,21.90
2023-04-18T07:18:36.529Z,23.20
2023-04-18T07:22:41.031Z,23.10
2023-04-18T07:26:43.416Z,32.53
2023-04-18T07:30:46.071Z,26.53
2023-04-18T07:34:48.439Z,21.43
2023-04-18T07:38:51.791Z,24.83
2023-04-18T07:42:53.809Z,24.53
2023-04-18T07:46:55.811Z,21.00
2023-04-18T07:50:58.243Z,23.23
2023-04-18T07:55:00.187Z,22.37
2023-04-18T07:59:02.024Z,24.63
2023-04-18T08:03:04.055Z,21.87
2023-04-18T08:07:06.308Z,23.73
2023-04-18T08:11:08.305Z,22.00
2023-04-18T08:15:10.692Z,21.53
2023-04-18T08:19:13.065Z,24.77
2023-04-18T08:23:15.975Z,22.17
2023-04-18T08:27:18.005Z,21.60
2023-04-18T08:31:20.146Z,20.83
2023-04-18T08:35:22.004Z,21.87
2023-04-18T08:39:25.266Z,20.10
2023-04-18T08:43:28.028Z,18.70
2023-04-18T08:47:31.444Z,19.40
2023-04-18T08:51:33.948Z,20.00
2023-04-18T08:55:36.332Z,19.57
2023-04-18T08:59:40.189Z,21.93
2023-04-18T09:03:44.210Z,19.13
2023-04-18T09:07:48.083Z,20.30
2023-04-18T09:11:50.144Z,21.67
2023-04-18T09:15:56.110Z,24.13
2023-04-18T09:19:58.819Z,22.00
2023-04-18T09:24:24.442Z,18.87
2023-04-18T09:28:30.813Z,20.23
2023-04-18T09:32:33.217Z,19.47
2023-04-18T09:36:37.195Z,19.50
2023-04-18T09:40:39.150Z,17.60
2023-04-18T09:44:58.497Z,13.90
2023-04-18T09:49:01.142Z,16.23
2023-04-18T09:53:03.376Z,13.43
2023-04-18T09:57:12.054Z,15.18
2023-04-18T10:01:14.240Z,13.17
2023-04-18T10:05:19.567Z,13.73
2023-04-18T10:09:26.337Z,15.03
2023-04-18T10:13:29.479Z,11.83
2023-04-18T10:17:56.165Z,13.13
2023-04-18T10:22:05.280Z,14.00
2023-04-18T10:26:08.532Z,14.60
2023-04-18T10:30:11.534Z,12.73
2023-04-18T10:34:18.157Z,14.30
2023-04-18T10:38:23.532Z,13.07
2023-04-18T10:42:47.428Z,12.00
2023-04-18T10:46:52.072Z,12.10
2023-04-18T10:51:16.669Z,13.40
2023-04-18T10:55:28.677Z,15.83
2023-04-18T10:59:32.913Z,10.87
2023-04-18T11:03:35.377Z,12.23
2023-04-18T11:07:46.025Z,9.90
2023-04-18T11:12:06.594Z,15.07
2023-04-18T11:16:08.727Z,10.32
2023-04-18T11:20:13.810Z,12.13
2023-04-18T11:24:23.840Z,11.38
2023-04-18T11:28:27.029Z,10.40
2023-04-18T11:32:32.213Z,9.80
2023-04-18T11:36:37.873Z,9.90
2023-04-18T11:40:46.875Z,10.03
2023-04-18T11:44:49.355Z,12.23
2023-04-18T11:48:51.283Z,10.30
2023-04-18T11:52:54.638Z,9.80
2023-04-18T11:56:57.598Z,9.60
2023-04-18T12:01:01.068Z,10.23
2023-04-18T12:05:04.400Z,8.93
2023-04-18T12:09:06.570Z,9.68
2023-04-18T12:13:09.002Z,9.67
2023-04-18T12:17:13.116Z,9.32
2023-04-18T12:21:17.268Z,10.13
2023-04-18T12:25:27.710Z,10.43
2023-04-18T12:29:30.013Z,8.83
2023-04-18T12:33:32.050Z,10.30
2023-04-18T12:37:33.942Z,9.88
2023-04-18T12:41:36.336Z,10.43
2023-04-18T12:45:38.256Z,8.87
2023-04-18T12:49:40.394Z,10.45
2023-04-18T12:53:42.439Z,9.43
2023-04-18T12:57:44.752Z,10.07
2023-04-18T13:01:46.952Z,9.70
2023-04-18T13:05:48.975Z,9.68
2023-04-18T13:09:51.013Z,10.67
2023-04-18T13:13:53.005Z,8.90
2023-04-18T13:17:58.365Z,8.82
2023-04-18T13:22:01.255Z,9.20
2023-04-18T13:26:03.407Z,18.48
2023-04-18T13:30:06.765Z,11.93
2023-04-18T13:34:08.756Z,9.40
2023-04-18T13:38:11.174Z,9.45
2023-04-18T13:42:15.459Z,8.07
2023-04-18T13:46:18.629Z,10.77
2023-04-18T13:50:20.645Z,10.10
2023-04-18T13:54:26.614Z,8.83
2023-04-18T13:58:28.410Z,7.60
2023-04-18T14:02:31.046Z,7.90
2023-04-18T14:06:33.178Z,10.73
2023-04-18T14:10:35.243Z,7.70
2023-04-18T14:14:37.255Z,8.13
2023-04-18T14:18:39.437Z,8.50
2023-04-18T14:22:41.469Z,7.67
2023-04-18T14:26:43.921Z,8.37
2023-04-18T14:30:46.003Z,7.78
2023-04-18T14:34:48.042Z,7.50
2023-04-18T14:38:50.238Z,7.80
2023-04-18T14:42:52.022Z,8.20
2023-04-18T14:46:54.095Z,7.43
2023-04-18T14:51:00.257Z,7.13
2023-04-18T14:55:02.315Z,7.38
2023-04-18T14:59:04.179Z,8.03
2023-04-18T15:03:08.304Z,7.43
2023-04-18T15:07:11.839Z,6.30
2023-04-18T15:11:13.974Z,7.93
2023-04-18T15:15:16.072Z,9.23
2023-04-18T15:19:17.877Z,7.80
2023-04-18T15:23:20.531Z,6.97
2023-04-18T15:27:22.516Z,8.93
2023-04-18T15:31:24.612Z,6.23
2023-04-18T15:35:26.680Z,7.13
2023-04-18T15:39:28.763Z,6.00
2023-04-18T15:43:30.851Z,6.72
2023-04-18T15:47:33.989Z,9.87
2023-04-18T15:51:35.959Z,7.57
2023-04-18T15:55:37.944Z,7.40
2023-04-18T15:59:41.220Z,8.43
2023-04-18T16:03:43.339Z,7.75
2023-04-18T16:07:45.741Z,7.97
2023-04-18T16:11:47.830Z,7.38
2023-04-18T16:15:49.803Z,8.17
2023-04-18T16:19:51.800Z,12.57
2023-04-18T16:23:53.967Z,9.00
2023-04-18T16:27:56.156Z,10.63
2023-04-18T16:31:58.282Z,9.10
2023-04-18T16:36:02.995Z,8.45
2023-04-18T16:40:07.139Z,8.63
2023-04-18T16:44:09.391Z,47.90
2023-04-18T16:48:11.636Z,9.93
2023-04-18T16:52:14.426Z,9.25
2023-04-18T16:56:16.300Z,9.30
2023-04-18T17:00:18.995Z,9.77
2023-04-18T17:04:21.735Z,11.73
2023-04-18T17:08:25.784Z,10.63
2023-04-18T17:12:27.835Z,11.77
2023-04-18T17:16:30.123Z,11.27
2023-04-18T17:20:32.402Z,11.23
2023-04-18T17:24:34.482Z,10.38
2023-04-18T17:28:36.962Z,9.53
2023-04-18T17:32:45.737Z,13.73
2023-04-18T17:36:47.791Z,11.17
2023-04-18T17:41:01.203Z,9.80
2023-04-18T17:45:04.955Z,8.57
2023-04-18T17:49:07.221Z,9.50
2023-04-18T17:53:09.179Z,9.70
2023-04-18T17:57:11.028Z,10.10
2023-04-18T18:01:16.669Z,9.87
2023-04-18T18:05:18.744Z,10.03
2023-04-18T18:09:20.995Z,9.82
2023-04-18T18:13:22.933Z,10.17
2023-04-18T18:17:24.862Z,9.07
2023-04-18T18:21:27.300Z,10.57
2023-04-18T18:25:29.532Z,9.13
2023-04-18T18:29:31.832Z,11.97
2023-04-18T18:33:33.899Z,10.30
2023-04-18T18:37:35.787Z,20.50
2023-04-18T18:41:37.836Z,10.73
2023-04-18T18:45:39.975Z,34.50
2023-04-18T18:49:42.151Z,572.53
2023-04-18T18:53:44.118Z,474.80
2023-04-18T18:57:46.809Z,303.17
2023-04-18T19:01:48.797Z,118.78
2023-04-18T19:05:50.779Z,57.70
2023-04-18T19:09:55.130Z,20.90
2023-04-18T19:13:57.263Z,7.50
2023-04-18T19:18:00.209Z,7.97
2023-04-18T19:22:02.301Z,8.87
2023-04-18T19:26:04.440Z,7.47
2023-04-18T19:30:07.253Z,8.23
2023-04-18T19:34:09.165Z,7.07
2023-04-18T19:38:11.088Z,7.90
2023-04-18T19:42:13.260Z,8.17
2023-04-18T19:46:15.349Z,7.70
2023-04-18T19:50:17.567Z,7.37
2023-04-18T19:54:21.861Z,7.50
2023-04-18T19:58:39.573Z,7.15
2023-04-18T20:02:42.321Z,6.83
2023-04-18T20:06:44.581Z,6.60
2023-04-18T20:10:46.604Z,7.07
2023-04-18T20:14:48.672Z,6.10
2023-04-18T20:18:51.955Z,7.53
2023-04-18T20:22:55.809Z,7.47
2023-04-18T20:27:01.780Z,8.57
2023-04-18T20:31:04.058Z,23.30
2023-04-18T20:35:07.337Z,13.10
2023-04-18T20:39:09.479Z,12.93
2023-04-18T20:43:13.445Z,7.53
2023-04-18T20:47:16.009Z,8.17
2023-04-18T20:51:18.191Z,11.40
2023-04-18T20:55:20.775Z,7.77
2023-04-18T20:59:22.735Z,8.07
2023-04-18T21:03:25.112Z,8.33
2023-04-18T21:07:27.392Z,10.80
2023-04-18T21:11:29.612Z,8.10
2023-04-18T21:15:31.514Z,9.00
2023-04-18T21:19:33.669Z,8.33
2023-04-18T21:23:41.910Z,7.80
2023-04-18T21:27:43.877Z,9.23
2023-04-18T21:31:47.226Z,8.50
2023-04-18T21:35:49.394Z,8.17
2023-04-18T21:39:51.257Z,8.53
2023-04-18T21:43:53.689Z,8.97
2023-04-18T21:47:55.729Z,8.17
2023-04-18T21:51:57.855Z,6.83
2023-04-18T21:55:59.997Z,7.93
2023-04-18T22:00:01.987Z,8.80
2023-04-18T22:04:12.527Z,9.43
2023-04-18T22:08:17.611Z,9.00
2023-04-18T22:12:19.654Z,7.93
2023-04-18T22:16:24.848Z,9.13
2023-04-18T22:20:27.019Z,10.47
2023-04-18T22:24:29.188Z,9.57
2023-04-18T22:28:32.364Z,10.13
2023-04-18T22:32:34.424Z,8.80
2023-04-18T22:36:36.222Z,10.30
2023-04-18T22:40:38.098Z,9.03
2023-04-18T22:44:39.916Z,9.80
2023-04-18T22:48:41.973Z,9.10
2023-04-18T22:52:43.960Z,9.23
2023-04-18T22:56:45.737Z,10.00
2023-04-18T23:00:47.569Z,10.57
2023-04-18T23:04:50.376Z,11.23
2023-04-18T23:08:52.717Z,10.87
2023-04-18T23:12:54.571Z,10.40
2023-04-18T23:16:56.551Z,11.00
2023-04-18T23:21:00.178Z,9.83
2023-04-18T23:25:02.106Z,12.20
2023-04-18T23:29:04.671Z,9.67
2023-04-18T23:33:06.632Z,10.73
2023-04-18T23:37:09.699Z,12.73
2023-04-18T23:41:11.724Z,16.17
2023-04-18T23:45:13.797Z,11.40
2023-04-18T23:49:16.278Z,13.10
2023-04-18T23:53:19.228Z,12.53
2023-04-18T23:57:21.185Z,12.67
